Time;durP1;ratioP1;P1;durP2;ratioP2;P2;SDS_P1;SDS_P2;PMS_P1;PMS_P2;Temp;Humidity;BMP_temperature;BMP_pressure;BME280_temperature;BME280_humidity;BME280_pressure;Samples;Min_cycle;Max_cycle;Signal;HPM_P1;HPM_P2
2023/10/25 00:02:09;;;;;;;;;;;20.40;71.00;;;;;;5036152;28;1193;-67
2023/10/25 00:04:34;;;;;;;;;;;20.40;71.00;;;;;;5039313;28;1404;-67
2023/10/25 00:07:00;;;;;;;;;;;20.40;71.00;;;;;;5038585;28;1519;-67
2023/10/25 00:09:25;;;;;;;;;;;20.30;71.80;;;;;;5040366;28;1747;-67
2023/10/25 00:11:51;;;;;;;;;;;20.40;71.00;;;;;;5042131;28;1553;-68
2023/10/25 00:14:16;;;;;;;;;;;20.30;71.70;;;;;;5040471;28;1370;-67
2023/10/25 00:16:42;;;;;;;;;;;20.40;71.00;;;;;;5043822;28;2009;-67
2023/10/25 00:19:07;;;;;;;;;;;20.30;71.00;;;;;;5040567;28;1418;-68
2023/10/25 00:21:33;;;;;;;;;;;20.40;71.10;;;;;;5038654;28;1333;-67
2023/10/25 00:23:58;;;;;;;;;;;20.30;71.00;;;;;;5040108;28;1371;-67
2023/10/25 00:26:24;;;;;;;;;;;20.30;71.00;;;;;;5041364;28;1543;-68
2023/10/25 00:28:49;;;;;;;;;;;20.40;71.10;;;;;;5042836;28;1470;-67
2023/10/25 00:31:15;;;;;;;;;;;20.30;71.00;;;;;;5039373;28;1254;-67
2023/10/25 00:33:41;;;;;;;;;;;20.40;71.10;;;;;;5040704;28;1499;-67
2023/10/25 00:36:08;;;;;;;;;;;20.40;71.10;;;;;;5038362;28;1480;-67
2023/10/25 00:38:34;;;;;;;;;;;20.30;71.10;;;;;;5041527;28;1984;-67
2023/10/25 00:40:59;;;;;;;;;;;20.30;71.10;;;;;;5042257;28;1162;-68
2023/10/25 00:43:25;;;;;;;;;;;20.40;71.10;;;;;;5043741;28;1460;-67
2023/10/25 00:46:09;;;;;;;;;;;20.30;71.10;;;;;;5040465;28;1288;-67
2023/10/25 00:48:35;;;;;;;;;;;20.30;71.10;;;;;;5041903;28;1394;-67
2023/10/25 00:51:00;;;;;;;;;;;20.30;71.10;;;;;;5045104;28;1947;-67
2023/10/25 00:53:26;;;;;;;;;;;20.30;71.10;;;;;;5041872;28;1376;-67
2023/10/25 00:55:52;;;;;;;;;;;20.30;71.10;;;;;;5037904;28;1462;-67
2023/10/25 00:58:18;;;;;;;;;;;20.30;71.10;;;;;;5042677;28;1965;-67
2023/10/25 01:00:44;;;;;;;;;;;20.30;71.10;;;;;;5036831;28;1318;-67
2023/10/25 01:03:09;;;;;;;;;;;20.30;71.20;;;;;;5026469;28;1427;-67
2023/10/25 01:05:35;;;;;;;;;;;20.30;71.10;;;;;;5037145;28;1493;-67
2023/10/25 01:08:00;;;;;;;;;;;20.30;71.10;;;;;;5038909;28;1389;-67
2023/10/25 01:10:26;;;;;;;;;;;20.30;71.20;;;;;;5040702;28;1119;-67
2023/10/25 01:12:51;;;;;;;;;;;20.30;71.20;;;;;;5043383;28;1297;-68
2023/10/25 01:15:20;;;;;;;;;;;20.30;71.20;;;;;;5040895;28;1651;-67
2023/10/25 01:17:46;;;;;;;;;;;20.30;71.20;;;;;;5029954;28;1902;-67
2023/10/25 01:20:11;;;;;;;;;;;20.30;71.20;;;;;;5041648;28;1441;-67
2023/10/25 01:22:37;;;;;;;;;;;20.30;71.20;;;;;;5041548;28;1140;-67
2023/10/25 01:25:02;;;;;;;;;;;20.30;71.20;;;;;;5040045;28;1470;-67
2023/10/25 01:27:27;;;;;;;;;;;20.30;71.20;;;;;;5041315;28;1505;-67
2023/10/25 01:29:53;;;;;;;;;;;20.30;71.30;;;;;;5041366;28;1252;-67
2023/10/25 01:32:18;;;;;;;;;;;20.30;71.30;;;;;;5040336;28;1343;-67
2023/10/25 01:34:44;;;;;;;;;;;20.30;71.30;;;;;;5037993;28;1413;-67
2023/10/25 01:37:09;;;;;;;;;;;20.30;72.00;;;;;;5039420;28;2020;-67
2023/10/25 01:39:35;;;;;;;;;;;20.30;71.30;;;;;;5040137;28;1503;-67
2023/10/25 01:42:00;;;;;;;;;;;20.30;71.30;;;;;;5042353;28;1299;-67
2023/10/25 01:44:26;;;;;;;;;;;20.30;71.30;;;;;;5038075;28;1077;-67
2023/10/25 01:46:51;;;;;;;;;;;20.20;71.30;;;;;;5039727;28;1264;-67
2023/10/25 01:49:17;;;;;;;;;;;20.20;71.20;;;;;;5040674;28;998;-67
2023/10/25 01:51:42;;;;;;;;;;;20.20;71.20;;;;;;5041198;28;923;-67
2023/10/25 01:54:07;;;;;;;;;;;20.20;71.30;;;;;;5047094;28;1217;-67
2023/10/25 01:56:33;;;;;;;;;;;20.30;71.40;;;;;;5038589;28;1347;-67
2023/10/25 01:58:58;;;;;;;;;;;20.20;71.30;;;;;;5039817;28;1967;-67
2023/10/25 02:01:24;;;;;;;;;;;20.30;71.40;;;;;;5038413;28;1385;-67
2023/10/25 02:03:49;;;;;;;;;;;20.20;71.30;;;;;;5041509;28;1435;-67
2023/10/25 02:06:15;;;;;;;;;;;20.30;71.40;;;;;;5040550;28;1445;-67
2023/10/25 02:08:41;;;;;;;;;;;20.30;71.40;;;;;;5041816;28;1410;-67
2023/10/25 02:11:06;;;;;;;;;;;20.30;71.40;;;;;;5039429;28;1471;-67
2023/10/25 02:13:32;;;;;;;;;;;20.20;71.30;;;;;;5040529;28;1536;-67
2023/10/25 02:16:01;;;;;;;;;;;20.30;71.40;;;;;;5040644;28;1440;-68
2023/10/25 02:18:26;;;;;;;;;;;20.30;71.50;;;;;;5040298;28;1955;-67
2023/10/25 02:20:51;;;;;;;;;;;20.20;71.40;;;;;;5040468;28;1057;-67
2023/10/25 02:23:20;;;;;;;;;;;20.20;71.40;;;;;;5038673;28;1443;-67
2023/10/25 02:25:45;;;;;;;;;;;20.20;71.40;;;;;;5040196;28;1584;-67
2023/10/25 02:28:12;;;;;;;;;;;20.20;71.40;;;;;;5085363;22;3818;-69
2023/10/25 02:30:37;;;;;;;;;;;20.20;71.40;;;;;;5041310;28;1464;-68
2023/10/25 02:33:03;;;;;;;;;;;20.20;71.40;;;;;;5023573;28;1360;-70
2023/10/25 02:35:28;;;;;;;;;;;20.20;71.40;;;;;;5024783;28;2039;-69
2023/10/25 02:37:54;;;;;;;;;;;20.20;71.40;;;;;;5021583;28;1914;-70
2023/10/25 02:40:19;;;;;;;;;;;20.20;71.40;;;;;;5021663;28;1401;-70
2023/10/25 02:42:46;;;;;;;;;;;20.20;71.40;;;;;;5017798;28;1664;-69
2023/10/25 02:45:12;;;;;;;;;;;20.20;71.40;;;;;;5022265;28;1357;-70
2023/10/25 02:47:37;;;;;;;;;;;20.20;71.50;;;;;;5025067;28;1323;-69
2023/10/25 02:50:03;;;;;;;;;;;20.20;71.50;;;;;;5021742;28;1433;-70
2023/10/25 02:52:29;;;;;;;;;;;20.20;71.40;;;;;;5022840;28;1574;-70
2023/10/25 02:54:55;;;;;;;;;;;20.20;71.50;;;;;;5020555;28;1325;-68
2023/10/25 02:57:20;;;;;;;;;;;20.20;71.50;;;;;;5019491;28;1902;-69
2023/10/25 02:59:46;;;;;;;;;;;20.20;71.50;;;;;;5022180;28;1212;-69
2023/10/25 03:02:13;;;;;;;;;;;20.20;71.50;;;;;;5027323;28;1210;-68
2023/10/25 03:04:38;;;;;;;;;;;20.20;71.50;;;;;;5017658;28;1577;-71
2023/10/25 03:07:04;;;;;;;;;;;20.20;71.50;;;;;;5020179;28;1511;-69
2023/10/25 03:09:29;;;;;;;;;;;20.20;71.50;;;;;;5020014;28;1499;-69
2023/10/25 03:11:55;;;;;;;;;;;20.20;71.50;;;;;;5018889;28;1603;-69
2023/10/25 03:14:20;;;;;;;;;;;20.20;71.50;;;;;;5016865;28;1514;-70
2023/10/25 03:16:46;;;;;;;;;;;20.20;71.50;;;;;;5017955;28;1967;-69
2023/10/25 03:19:11;;;;;;;;;;;20.20;71.60;;;;;;5020678;28;1367;-69
2023/10/25 03:21:37;;;;;;;;;;;20.20;71.60;;;;;;5015807;28;2025;-71
2023/10/25 03:24:03;;;;;;;;;;;20.20;71.60;;;;;;5019515;28;2111;-71
2023/10/25 03:26:28;;;;;;;;;;;20.20;71.60;;;;;;5018694;28;1508;-70
2023/10/25 03:28:55;;;;;;;;;;;20.20;71.60;;;;;;5019661;28;1373;-70
2023/10/25 03:31:21;;;;;;;;;;;20.20;71.60;;;;;;5019505;28;1502;-70
2023/10/25 03:33:47;;;;;;;;;;;20.20;71.60;;;;;;5019831;28;1672;-70
2023/10/25 03:36:12;;;;;;;;;;;20.20;71.60;;;;;;5017596;28;1230;-70
2023/10/25 03:38:38;;;;;;;;;;;20.20;71.60;;;;;;5019083;28;1910;-70
2023/10/25 03:41:04;;;;;;;;;;;20.10;71.60;;;;;;5023673;28;1258;-70
2023/10/25 03:43:31;;;;;;;;;;;20.20;71.60;;;;;;5019718;28;1304;-71
2023/10/25 03:45:56;;;;;;;;;;;20.20;71.60;;;;;;5022787;28;1545;-69
2023/10/25 03:48:22;;;;;;;;;;;20.20;71.70;;;;;;5024464;28;1487;-68
2023/10/25 03:50:47;;;;;;;;;;;20.20;71.60;;;;;;5022806;28;1348;-72
2023/10/25 03:53:13;;;;;;;;;;;20.20;71.60;;;;;;5020786;28;1478;-72
2023/10/25 03:55:38;;;;;;;;;;;20.10;71.60;;;;;;5021498;28;1107;-71
2023/10/25 03:58:04;;;;;;;;;;;20.20;71.70;;;;;;5022139;28;1902;-73
2023/10/25 04:00:29;;;;;;;;;;;20.10;71.60;;;;;;5020165;28;1360;-71
2023/10/25 04:02:55;;;;;;;;;;;20.20;71.70;;;;;;5023232;28;1483;-70
2023/10/25 04:05:20;;;;;;;;;;;20.10;71.60;;;;;;5022651;28;1324;-70
2023/10/25 04:07:46;;;;;;;;;;;20.20;71.70;;;;;;5021976;28;1361;-71
2023/10/25 04:10:12;;;;;;;;;;;20.20;71.70;;;;;;5023275;28;1337;-70
2023/10/25 04:12:37;;;;;;;;;;;20.10;71.60;;;;;;5021074;28;1265;-70
2023/10/25 04:15:03;;;;;;;;;;;20.20;71.70;;;;;;5022819;28;1118;-69
2023/10/25 04:17:28;;;;;;;;;;;20.20;71.60;;;;;;5018405;28;1933;-70
2023/10/25 04:19:54;;;;;;;;;;;20.20;71.60;;;;;;5021175;28;1376;-71
2023/10/25 04:22:19;;;;;;;;;;;20.20;71.50;;;;;;5021829;28;1401;-69
2023/10/25 04:24:45;;;;;;;;;;;20.20;71.40;;;;;;5023168;28;1727;-68
2023/10/25 04:27:10;;;;;;;;;;;20.30;71.40;;;;;;5021644;28;1351;-69
2023/10/25 04:29:36;;;;;;;;;;;20.30;71.30;;;;;;5028811;28;1274;-71
2023/10/25 04:32:02;;;;;;;;;;;20.30;71.20;;;;;;5021627;28;1531;-71
2023/10/25 04:34:27;;;;;;;;;;;20.30;71.10;;;;;;5021700;28;1429;-70
2023/10/25 04:36:53;;;;;;;;;;;20.30;71.00;;;;;;5025833;28;1973;-73
2023/10/25 04:39:18;;;;;;;;;;;20.40;71.00;;;;;;5023231;28;1317;-72
2023/10/25 04:41:44;;;;;;;;;;;20.40;70.90;;;;;;5024768;28;1353;-73
2023/10/25 04:44:09;;;;;;;;;;;20.40;70.80;;;;;;5020922;28;1424;-74
2023/10/25 04:46:35;;;;;;;;;;;20.40;70.60;;;;;;5020992;28;1800;-73
2023/10/25 04:49:00;;;;;;;;;;;20.50;70.60;;;;;;5021914;28;1291;-74
2023/10/25 04:51:25;;;;;;;;;;;20.50;70.40;;;;;;5019770;28;1268;-70
2023/10/25 04:53:51;;;;;;;;;;;20.60;70.30;;;;;;5022492;28;1693;-71
2023/10/25 04:56:20;;;;;;;;;;;20.60;70.20;;;;;;5022545;28;1518;-72
2023/10/25 04:58:46;;;;;;;;;;;20.70;70.10;;;;;;5022095;28;1958;-71
2023/10/25 05:01:12;;;;;;;;;;;20.70;69.90;;;;;;5024800;28;1417;-72
2023/10/25 05:03:38;;;;;;;;;;;20.70;69.70;;;;;;5020037;28;1416;-71
2023/10/25 05:06:04;;;;;;;;;;;20.80;69.60;;;;;;5011343;28;1405;-72
2023/10/25 05:08:30;;;;;;;;;;;20.80;69.40;;;;;;5020984;28;1383;-72
2023/10/25 05:10:55;;;;;;;;;;;20.90;69.30;;;;;;5024386;28;1407;-72
2023/10/25 05:13:21;;;;;;;;;;;20.90;69.20;;;;;;5022722;28;1355;-71
2023/10/25 05:15:46;;;;;;;;;;;20.90;69.10;;;;;;5020341;28;1709;-71
2023/10/25 05:18:12;;;;;;;;;;;20.90;69.00;;;;;;5021138;28;1886;-73
2023/10/25 05:20:38;;;;;;;;;;;21.00;69.00;;;;;;5021194;28;1322;-70
2023/10/25 05:23:04;;;;;;;;;;;21.00;68.90;;;;;;5020514;28;1255;-71
2023/10/25 05:25:29;;;;;;;;;;;21.00;68.80;;;;;;5022238;28;1484;-72
2023/10/25 05:27:55;;;;;;;;;;;21.00;68.70;;;;;;5023177;28;1264;-70
2023/10/25 05:30:21;;;;;;;;;;;21.00;68.70;;;;;;5020358;28;1558;-71
2023/10/25 05:32:47;;;;;;;;;;;21.00;68.60;;;;;;5018194;28;1357;-69
2023/10/25 05:35:13;;;;;;;;;;;21.10;68.70;;;;;;5027703;28;1330;-70
2023/10/25 05:37:38;;;;;;;;;;;21.10;68.50;;;;;;5024096;28;1910;-72
2023/10/25 05:40:04;;;;;;;;;;;21.10;68.50;;;;;;5023789;28;1539;-73
2023/10/25 05:42:29;;;;;;;;;;;21.10;68.50;;;;;;5020667;28;1464;-75
2023/10/25 05:44:55;;;;;;;;;;;21.10;68.50;;;;;;5019142;28;1278;-71
2023/10/25 05:47:21;;;;;;;;;;;21.10;68.40;;;;;;5012232;28;1530;-70
2023/10/25 05:49:47;;;;;;;;;;;21.10;68.40;;;;;;5021323;28;1533;-71
2023/10/25 05:52:12;;;;;;;;;;;21.10;68.40;;;;;;5009547;28;1355;-69
2023/10/25 05:54:38;;;;;;;;;;;21.10;68.40;;;;;;5019582;28;1482;-69
2023/10/25 05:57:04;;;;;;;;;;;21.10;68.40;;;;;;5016473;28;1963;-69
2023/10/25 05:59:29;;;;;;;;;;;21.10;68.40;;;;;;5022384;28;1488;-69
2023/10/25 06:02:01;;;;;;;;;;;21.10;68.40;;;;;;5022065;28;1217;-69
2023/10/25 06:04:27;;;;;;;;;;;21.10;68.40;;;;;;5027587;28;1777;-75
2023/10/25 06:06:52;;;;;;;;;;;21.10;68.40;;;;;;5020435;28;970;-70
2023/10/25 06:09:18;;;;;;;;;;;21.10;68.40;;;;;;5018848;28;1284;-70
2023/10/25 06:11:43;;;;;;;;;;;21.10;68.40;;;;;;5022431;28;1635;-71
2023/10/25 06:14:09;;;;;;;;;;;21.10;68.40;;;;;;5009073;28;1284;-69
2023/10/25 06:16:34;;;;;;;;;;;21.10;68.40;;;;;;5020590;28;1361;-69
2023/10/25 06:19:00;;;;;;;;;;;21.00;68.40;;;;;;5020606;28;1974;-72
2023/10/25 06:21:26;;;;;;;;;;;21.00;68.40;;;;;;5020737;28;1296;-69
2023/10/25 06:23:51;;;;;;;;;;;21.10;68.50;;;;;;5027636;28;1573;-70
2023/10/25 06:26:17;;;;;;;;;;;21.00;68.50;;;;;;5021513;28;1399;-69
2023/10/25 06:28:42;;;;;;;;;;;21.00;68.50;;;;;;5019970;28;1566;-70
2023/10/25 06:31:12;;;;;;;;;;;21.10;68.60;;;;;;5021577;28;1386;-72
2023/10/25 06:33:37;;;;;;;;;;;21.00;68.60;;;;;;5016706;28;1532;-70
2023/10/25 06:36:03;;;;;;;;;;;21.00;68.80;;;;;;5021894;28;1378;-71
2023/10/25 06:38:28;;;;;;;;;;;21.00;68.80;;;;;;5018476;28;1962;-70
2023/10/25 06:40:54;;;;;;;;;;;21.00;69.20;;;;;;5017692;28;1758;-71
2023/10/25 06:43:20;;;;;;;;;;;21.00;69.30;;;;;;5017701;28;1243;-70
2023/10/25 06:45:45;;;;;;;;;;;21.00;69.30;;;;;;5015956;28;1568;-70
2023/10/25 06:48:11;;;;;;;;;;;21.00;69.40;;;;;;5017895;28;1476;-71
2023/10/25 06:50:37;;;;;;;;;;;21.00;69.30;;;;;;5017062;28;1333;-72
2023/10/25 06:53:02;;;;;;;;;;;21.10;69.30;;;;;;5017676;28;1420;-70
2023/10/25 06:55:28;;;;;;;;;;;21.10;69.20;;;;;;5018288;28;1758;-71
2023/10/25 06:57:53;;;;;;;;;;;21.10;69.20;;;;;;5001964;28;1902;-71
2023/10/25 07:00:19;;;;;;;;;;;21.10;69.10;;;;;;5020832;28;1236;-71
2023/10/25 07:02:52;;;;;;;;;;;21.10;69.30;;;;;;5017280;28;1574;-71
2023/10/25 07:05:18;;;;;;;;;;;21.00;69.30;;;;;;5020403;28;1635;-71
2023/10/25 07:07:45;;;;;;;;;;;21.00;69.20;;;;;;5020864;28;1307;-71
2023/10/25 07:10:11;;;;;;;;;;;21.00;69.20;;;;;;5019802;28;1274;-71
2023/10/25 07:12:36;;;;;;;;;;;21.00;69.30;;;;;;5020234;28;1261;-71
2023/10/25 07:15:02;;;;;;;;;;;21.00;69.30;;;;;;5022065;28;1085;-71
2023/10/25 07:17:27;;;;;;;;;;;21.00;69.30;;;;;;5019103;28;1944;-70
2023/10/25 07:19:53;;;;;;;;;;;20.90;69.20;;;;;;5020185;28;1354;-70
2023/10/25 07:22:19;;;;;;;;;;;21.00;69.30;;;;;;5018637;28;1350;-70
2023/10/25 07:24:44;;;;;;;;;;;20.90;69.20;;;;;;5021053;28;1250;-70
2023/10/25 07:27:10;;;;;;;;;;;20.90;69.30;;;;;;5023098;28;1497;-70
2023/10/25 07:29:36;;;;;;;;;;;20.90;69.40;;;;;;5018109;28;1350;-70
2023/10/25 07:32:05;;;;;;;;;;;20.90;69.40;;;;;;5019647;28;1072;-71
2023/10/25 07:34:30;;;;;;;;;;;20.90;70.20;;;;;;5020544;28;1338;-71
2023/10/25 07:36:56;;;;;;;;;;;20.90;69.50;;;;;;5020876;28;1910;-71
2023/10/25 07:39:21;;;;;;;;;;;20.80;70.20;;;;;;5020123;28;1402;-70
2023/10/25 07:41:47;;;;;;;;;;;20.90;69.50;;;;;;5015060;28;1514;-71
2023/10/25 07:44:12;;;;;;;;;;;20.90;69.60;;;;;;5021705;28;1277;-70
2023/10/25 07:46:38;;;;;;;;;;;20.80;69.50;;;;;;5023321;28;1678;-70
2023/10/25 07:49:03;;;;;;;;;;;20.80;70.30;;;;;;5015478;28;1782;-70
2023/10/25 07:51:29;;;;;;;;;;;20.90;69.50;;;;;;5017773;28;1332;-70
2023/10/25 07:53:54;;;;;;;;;;;20.90;69.60;;;;;;5020116;28;1419;-71
2023/10/25 07:56:20;;;;;;;;;;;20.80;69.50;;;;;;5015312;28;1303;-70
2023/10/25 07:58:45;;;;;;;;;;;20.90;69.60;;;;;;5019308;28;1961;-70
2023/10/25 08:01:11;;;;;;;;;;;20.80;69.50;;;;;;5008659;28;1477;-71
2023/10/25 08:03:37;;;;;;;;;;;20.80;69.50;;;;;;5017537;28;1366;-71
2023/10/25 08:06:02;;;;;;;;;;;20.80;69.50;;;;;;5019837;28;1384;-69
2023/10/25 08:08:28;;;;;;;;;;;20.80;69.50;;;;;;5012217;28;1491;-69
2023/10/25 08:11:00;;;;;;;;;;;20.80;69.60;;;;;;5020046;28;1326;-70
2023/10/25 08:13:26;;;;;;;;;;;20.90;70.00;;;;;;5019565;28;1490;-69
2023/10/25 08:15:58;;;;;;;;;;;20.90;70.40;;;;;;5017583;28;1661;-69
2023/10/25 08:18:25;;;;;;;;;;;20.90;70.60;;;;;;5015820;28;1970;-69
2023/10/25 08:20:51;;;;;;;;;;;21.00;70.30;;;;;;5018778;28;1631;-70
2023/10/25 08:23:16;;;;;;;;;;;21.00;70.30;;;;;;5016061;28;1426;-70
2023/10/25 08:25:42;;;;;;;;;;;21.10;70.20;;;;;;5017101;28;1482;-70
2023/10/25 08:28:07;;;;;;;;;;;21.10;69.70;;;;;;5023954;28;1476;-73
2023/10/25 08:30:33;;;;;;;;;;;21.10;69.60;;;;;;5022673;28;1567;-72
2023/10/25 08:32:58;;;;;;;;;;;21.10;69.50;;;;;;5020294;28;1350;-70
2023/10/25 08:35:24;;;;;;;;;;;21.00;69.50;;;;;;5016815;28;1368;-71
2023/10/25 08:37:49;;;;;;;;;;;21.10;69.50;;;;;;5021007;28;1914;-73
2023/10/25 08:40:15;;;;;;;;;;;21.00;69.40;;;;;;5023781;28;1321;-73
2023/10/25 08:42:41;;;;;;;;;;;21.00;70.20;;;;;;5017800;28;1399;-73
2023/10/25 08:45:06;;;;;;;;;;;21.00;69.40;;;;;;5021428;28;1241;-73
2023/10/25 08:47:32;;;;;;;;;;;21.00;69.40;;;;;;5022893;28;1395;-73
2023/10/25 08:49:57;;;;;;;;;;;21.00;69.50;;;;;;5022417;28;1496;-73
2023/10/25 08:52:24;;;;;;;;;;;21.00;69.50;;;;;;5020591;28;1264;-73
2023/10/25 08:54:49;;;;;;;;;;;21.00;69.50;;;;;;5022039;28;1161;-73
2023/10/25 08:57:16;;;;;;;;;;;21.00;69.50;;;;;;5023214;28;1894;-73
2023/10/25 08:59:43;;;;;;;;;;;21.00;69.60;;;;;;5023017;28;1471;-74
2023/10/25 09:02:09;;;;;;;;;;;21.00;69.60;;;;;;5021180;28;1406;-73
2023/10/25 09:04:35;;;;;;;;;;;20.90;69.60;;;;;;5022015;28;1454;-73
2023/10/25 09:07:00;;;;;;;;;;;20.90;69.60;;;;;;5018482;28;1453;-73
2023/10/25 09:09:28;;;;;;;;;;;20.90;69.60;;;;;;5025083;28;1288;-73
2023/10/25 09:11:53;;;;;;;;;;;20.90;69.70;;;;;;5020415;28;1396;-73
2023/10/25 09:14:19;;;;;;;;;;;20.90;69.60;;;;;;5021830;28;1497;-73
2023/10/25 09:16:45;;;;;;;;;;;20.90;69.80;;;;;;5022277;28;1392;-73
2023/10/25 09:19:10;;;;;;;;;;;20.90;69.80;;;;;;5018361;28;1934;-72
2023/10/25 09:21:36;;;;;;;;;;;20.90;69.80;;;;;;5022655;28;1495;-72
2023/10/25 09:24:07;;;;;;;;;;;20.90;70.00;;;;;;5022265;28;1121;-72
2023/10/25 09:26:36;;;;;;;;;;;20.90;70.50;;;;;;5019324;28;1524;-73
2023/10/25 09:29:02;;;;;;;;;;;20.90;71.00;;;;;;5017305;28;1432;-72
2023/10/25 09:31:31;;;;;;;;;;;21.00;70.80;;;;;;5020236;28;1365;-73
2023/10/25 09:34:00;;;;;;;;;;;21.00;70.90;;;;;;5022786;28;1390;-73
2023/10/25 09:36:26;;;;;;;;;;;20.90;70.90;;;;;;5022194;28;1365;-73
2023/10/25 09:38:52;;;;;;;;;;;21.00;70.90;;;;;;5019722;28;1914;-72
2023/10/25 09:41:17;;;;;;;;;;;21.00;71.70;;;;;;5018200;28;1316;-73
2023/10/25 09:43:45;;;;;;;;;;;21.00;72.10;;;;;;5020439;28;1476;-72
2023/10/25 09:46:11;;;;;;;;;;;21.00;71.50;;;;;;5018913;28;1362;-72
2023/10/25 09:48:36;;;;;;;;;;;21.00;71.10;;;;;;5019409;28;1420;-72
2023/10/25 09:51:05;;;;;;;;;;;21.00;71.60;;;;;;5017064;28;1484;-72
2023/10/25 09:53:38;;;;;;;;;;;21.00;71.20;;;;;;5019253;28;1513;-73
2023/10/25 09:56:03;;;;;;;;;;;21.00;71.20;;;;;;5019654;28;1454;-72
2023/10/25 09:58:33;;;;;;;;;;;21.00;71.00;;;;;;5020838;28;1902;-72
2023/10/25 10:01:00;;;;;;;;;;;20.90;71.00;;;;;;5025320;28;1560;-72
2023/10/25 10:03:32;;;;;;;;;;;21.00;71.70;;;;;;5018206;28;1451;-72
2023/10/25 10:06:00;;;;;;;;;;;20.90;71.70;;;;;;5020647;28;1317;-73
2023/10/25 10:08:29;;;;;;;;;;;21.00;72.40;;;;;;5020661;28;1374;-73
2023/10/25 10:10:59;;;;;;;;;;;21.00;72.30;;;;;;5017811;28;1220;-73
2023/10/25 10:13:26;;;;;;;;;;;21.00;73.00;;;;;;5017757;28;1157;-73
2023/10/25 10:15:54;;;;;;;;;;;21.00;72.80;;;;;;5018226;28;1332;-73
2023/10/25 10:18:20;;;;;;;;;;;21.00;72.80;;;;;;5022684;28;1957;-73
2023/10/25 10:20:45;;;;;;;;;;;21.10;73.30;;;;;;5021255;28;1365;-73
2023/10/25 10:23:16;;;;;;;;;;;21.10;73.20;;;;;;5025592;28;1272;-73
2023/10/25 10:25:42;;;;;;;;;;;21.10;73.40;;;;;;5018648;28;1022;-73
2023/10/25 10:28:07;;;;;;;;;;;21.10;73.30;;;;;;5020758;28;1417;-73
2023/10/25 10:30:33;;;;;;;;;;;21.10;73.40;;;;;;5020259;28;1216;-73
2023/10/25 10:32:58;;;;;;;;;;;21.10;73.60;;;;;;5019861;28;1473;-73
2023/10/25 10:35:24;;;;;;;;;;;21.10;73.00;;;;;;5001822;28;1286;-73
2023/10/25 10:37:59;;;;;;;;;;;21.10;73.50;;;;;;5002967;28;1911;-72
2023/10/25 10:40:25;;;;;;;;;;;21.10;73.20;;;;;;5019050;28;1450;-73
2023/10/25 10:42:51;;;;;;;;;;;21.10;72.70;;;;;;5017384;28;1390;-73
2023/10/25 10:45:18;;;;;;;;;;;21.10;72.90;;;;;;5022349;28;1261;-73
2023/10/25 10:47:55;;;;;;;;;;;21.10;73.00;;;;;;5019740;28;1261;-72
2023/10/25 10:50:21;;;;;;;;;;;21.10;73.20;;;;;;5020595;28;1082;-72
2023/10/25 10:52:47;;;;;;;;;;;21.10;73.30;;;;;;5017927;28;1349;-72
2023/10/25 10:55:23;;;;;;;;;;;21.10;72.90;;;;;;5018938;28;1374;-73
2023/10/25 10:57:48;;;;;;;;;;;21.10;73.20;;;;;;5018132;28;1902;-72
2023/10/25 11:00:16;;;;;;;;;;;21.10;73.00;;;;;;5021739;28;1503;-72
2023/10/25 11:02:48;;;;;;;;;;;21.10;73.60;;;;;;5018998;28;1651;-72
2023/10/25 11:05:15;;;;;;;;;;;21.10;73.70;;;;;;5011372;28;1211;-72
2023/10/25 11:07:41;;;;;;;;;;;21.10;73.50;;;;;;5019629;28;1418;-72
2023/10/25 11:10:07;;;;;;;;;;;21.20;73.70;;;;;;5020682;28;1640;-71
2023/10/25 11:12:32;;;;;;;;;;;21.10;73.30;;;;;;5018605;28;1250;-71
2023/10/25 11:15:00;;;;;;;;;;;21.10;73.20;;;;;;5017238;28;1680;-71
2023/10/25 11:17:26;;;;;;;;;;;21.10;73.20;;;;;;5019433;28;1918;-71
2023/10/25 11:19:51;;;;;;;;;;;21.20;74.00;;;;;;5016445;28;1361;-69
2023/10/25 11:22:17;;;;;;;;;;;21.20;73.00;;;;;;5019500;28;1312;-70
2023/10/25 11:24:42;;;;;;;;;;;21.10;71.50;;;;;;5019121;28;1983;-69
2023/10/25 11:27:11;;;;;;;;;;;21.10;70.00;;;;;;5019873;28;1505;-70
2023/10/25 11:29:37;;;;;;;;;;;21.10;69.70;;;;;;5019500;28;1363;-70
2023/10/25 11:32:06;;;;;;;;;;;21.10;68.10;;;;;;5021108;28;1452;-70
2023/10/25 11:34:32;;;;;;;;;;;21.10;67.00;;;;;;5015697;28;1502;-71
2023/10/25 11:36:58;;;;;;;;;;;21.00;61.90;;;;;;5017624;28;1421;-70
2023/10/25 11:39:24;;;;;;;;;;;20.90;60.70;;;;;;5019748;28;1997;-71
2023/10/25 11:41:50;;;;;;;;;;;20.90;61.50;;;;;;5017257;28;1521;-71
2023/10/25 11:44:22;;;;;;;;;;;20.80;61.10;;;;;;5020017;28;1253;-71
2023/10/25 11:46:47;;;;;;;;;;;20.80;62.50;;;;;;5019387;28;1396;-71
2023/10/25 11:49:15;;;;;;;;;;;20.80;63.40;;;;;;5025967;28;1529;-71
2023/10/25 11:51:42;;;;;;;;;;;20.70;62.00;;;;;;5016290;28;1053;-71
2023/10/25 11:54:08;;;;;;;;;;;20.70;61.50;;;;;;5016534;28;1133;-76
2023/10/25 11:56:33;;;;;;;;;;;20.70;60.30;;;;;;5020286;28;1615;-73
2023/10/25 11:58:59;;;;;;;;;;;20.60;61.00;;;;;;5020200;28;1915;-73
2023/10/25 12:01:24;;;;;;;;;;;20.60;60.40;;;;;;5019346;28;1284;-73
2023/10/25 12:03:50;;;;;;;;;;;20.60;60.40;;;;;;5023903;28;1712;-73
2023/10/25 12:06:18;;;;;;;;;;;20.50;61.30;;;;;;5020638;28;1405;-73
2023/10/25 12:08:43;;;;;;;;;;;20.50;60.80;;;;;;5020559;28;1455;-73
2023/10/25 12:11:12;;;;;;;;;;;20.50;61.10;;;;;;5025650;28;1456;-73
2023/10/25 12:13:38;;;;;;;;;;;20.50;61.00;;;;;;5013650;28;1464;-73
2023/10/25 12:16:04;;;;;;;;;;;20.50;62.80;;;;;;5022586;28;1160;-73
2023/10/25 12:18:33;;;;;;;;;;;20.40;61.50;;;;;;5022342;28;1984;-73
2023/10/25 12:20:59;;;;;;;;;;;20.40;63.00;;;;;;5023444;28;1447;-74
2023/10/25 12:23:24;;;;;;;;;;;20.40;61.30;;;;;;5025267;28;1293;-74
2023/10/25 12:25:50;;;;;;;;;;;20.40;61.00;;;;;;5019621;28;1599;-74
2023/10/25 12:28:15;;;;;;;;;;;20.40;62.10;;;;;;5022598;28;1441;-74
2023/10/25 12:30:41;;;;;;;;;;;20.30;61.20;;;;;;5022576;28;1438;-73
2023/10/25 12:33:06;;;;;;;;;;;20.30;59.90;;;;;;5028326;28;1594;-73
2023/10/25 12:35:32;;;;;;;;;;;20.30;60.30;;;;;;5020301;28;1307;-73
2023/10/25 12:37:57;;;;;;;;;;;20.30;61.30;;;;;;5021229;28;1898;-73
2023/10/25 12:40:23;;;;;;;;;;;20.30;62.20;;;;;;5011761;28;1647;-73
2023/10/25 12:42:48;;;;;;;;;;;20.30;62.70;;;;;;5020132;28;1681;-73
2023/10/25 12:45:14;;;;;;;;;;;20.30;62.80;;;;;;5022109;28;1428;-73
2023/10/25 12:47:39;;;;;;;;;;;20.30;62.80;;;;;;5022317;28;1434;-72
2023/10/25 12:50:05;;;;;;;;;;;20.20;62.60;;;;;;5021080;28;1538;-73
2023/10/25 12:52:31;;;;;;;;;;;20.20;62.80;;;;;;5022894;28;1419;-72
2023/10/25 12:54:56;;;;;;;;;;;20.20;63.20;;;;;;5021967;28;1629;-73
2023/10/25 12:57:22;;;;;;;;;;;20.20;64.40;;;;;;5018459;28;1899;-73
2023/10/25 12:59:47;;;;;;;;;;;20.20;63.40;;;;;;5020416;28;1308;-72
2023/10/25 13:02:12;;;;;;;;;;;20.20;63.70;;;;;;5020735;28;1122;-71
2023/10/25 13:04:38;;;;;;;;;;;20.20;63.40;;;;;;5022802;28;1102;-72
2023/10/25 13:07:05;;;;;;;;;;;20.20;63.80;;;;;;5017874;28;1285;-72
2023/10/25 13:09:31;;;;;;;;;;;20.20;63.90;;;;;;5019592;28;1224;-71
2023/10/25 13:11:56;;;;;;;;;;;20.20;63.70;;;;;;5018654;28;1381;-71
2023/10/25 13:14:22;;;;;;;;;;;20.20;64.00;;;;;;5021984;28;986;-72
2023/10/25 13:16:47;;;;;;;;;;;20.10;64.00;;;;;;5019013;28;1055;-72
2023/10/25 13:19:13;;;;;;;;;;;20.20;64.20;;;;;;5018752;28;1898;-72
2023/10/25 13:21:41;;;;;;;;;;;20.10;64.50;;;;;;5018783;28;1895;-72
2023/10/25 13:24:08;;;;;;;;;;;20.20;64.10;;;;;;5019387;28;1276;-72
2023/10/25 13:26:34;;;;;;;;;;;20.20;64.20;;;;;;5020788;28;1436;-71
2023/10/25 13:29:00;;;;;;;;;;;20.10;63.50;;;;;;4981160;28;1097688;-71
2023/10/25 13:31:25;;;;;;;;;;;20.10;63.60;;;;;;5019226;28;1410;-72
2023/10/25 13:33:51;;;;;;;;;;;20.10;63.70;;;;;;5022934;28;1468;-71
2023/10/25 13:36:16;;;;;;;;;;;20.10;63.70;;;;;;5018510;28;1418;-71
2023/10/25 13:38:42;;;;;;;;;;;20.10;64.20;;;;;;5018944;28;1993;-71
2023/10/25 13:41:07;;;;;;;;;;;20.10;63.50;;;;;;5020163;28;1491;-70
2023/10/25 13:43:33;;;;;;;;;;;20.10;63.50;;;;;;5021228;28;1363;-71
2023/10/25 13:45:59;;;;;;;;;;;20.10;63.70;;;;;;5019449;28;1324;-71
2023/10/25 13:48:24;;;;;;;;;;;20.10;64.00;;;;;;5020672;28;1394;-69
2023/10/25 13:50:50;;;;;;;;;;;20.10;64.30;;;;;;5020430;28;1550;-70
2023/10/25 13:53:15;;;;;;;;;;;20.10;64.20;;;;;;5020821;28;1771;-70
2023/10/25 13:55:41;;;;;;;;;;;20.10;64.10;;;;;;5021658;28;1251;-70
2023/10/25 13:58:09;;;;;;;;;;;20.10;64.20;;;;;;5023549;28;1925;-70
2023/10/25 14:00:38;;;;;;;;;;;20.10;64.30;;;;;;5020602;28;1747;-70
2023/10/25 14:03:04;;;;;;;;;;;20.10;64.40;;;;;;5020449;28;1458;-70
2023/10/25 14:05:29;;;;;;;;;;;20.10;64.60;;;;;;5022819;28;1611;-70
2023/10/25 14:07:55;;;;;;;;;;;20.10;64.70;;;;;;5022134;28;1875;-70
2023/10/25 14:10:20;;;;;;;;;;;20.10;64.90;;;;;;5018562;28;1276;-69
2023/10/25 14:12:46;;;;;;;;;;;20.10;65.00;;;;;;5018400;28;1502;-71
2023/10/25 14:15:11;;;;;;;;;;;20.10;65.10;;;;;;5020220;28;1157;-71
2023/10/25 14:17:37;;;;;;;;;;;20.10;65.20;;;;;;5021324;28;1987;-71
2023/10/25 14:20:03;;;;;;;;;;;20.10;65.30;;;;;;5020665;28;1324;-71
2023/10/25 14:22:29;;;;;;;;;;;20.10;65.40;;;;;;5020731;28;1499;-70
2023/10/25 14:24:54;;;;;;;;;;;20.10;65.50;;;;;;5015933;28;1429;-70